Time;durP1;ratioP1;P1;durP2;ratioP2;P2;SDS_P1;SDS_P2;PMS_P1;PMS_P2;Temp;Humidity;BMP_temperature;BMP_pressure;BME280_temperature;BME280_humidity;BME280_pressure;Samples;Min_cycle;Max_cycle;Signal;HPM_P1;HPM_P2
2023/02/06 00:00:41;;;;;;;65.53;7.33;;;;;;;-145.18;100.00;60484.78;5072732;28;20077;-68
2023/02/06 00:03:07;;;;;;;61.03;7.57;;;;;;;-145.18;100.00;60484.78;5071166;28;20035;-68
2023/02/06 00:05:33;;;;;;;68.60;8.13;;;;;;;-145.18;100.00;60484.78;5072684;28;20028;-68
2023/02/06 00:07:58;;;;;;;61.13;7.67;;;;;;;-145.18;100.00;60484.78;5071657;28;20059;-68
2023/02/06 00:10:24;;;;;;;65.87;7.40;;;;;;;-145.18;100.00;60484.78;5072397;28;20111;-69
2023/02/06 00:12:49;;;;;;;65.73;7.63;;;;;;;-145.18;100.00;60484.78;5062940;28;20472;-67
2023/02/06 00:15:15;;;;;;;83.07;8.17;;;;;;;-145.18;100.00;60484.78;5064346;28;20029;-67
2023/02/06 00:17:41;;;;;;;70.63;7.80;;;;;;;-145.18;100.00;60484.78;5072062;28;20103;-68
2023/02/06 00:20:07;;;;;;;66.57;8.93;;;;;;;-145.18;100.00;60484.78;5071416;28;20107;-67
2023/02/06 00:22:33;;;;;;;64.93;8.17;;;;;;;-145.18;100.00;60484.78;5070769;28;20025;-68
2023/02/06 00:24:59;;;;;;;67.13;8.70;;;;;;;-145.18;100.00;60484.78;5072337;28;20380;-68
2023/02/06 00:27:25;;;;;;;84.47;9.20;;;;;;;-145.18;100.00;60484.78;5071745;28;20021;-68
2023/02/06 00:29:51;;;;;;;80.10;8.47;;;;;;;-145.18;100.00;60484.78;5070502;28;20056;-68
2023/02/06 00:32:16;;;;;;;68.53;8.80;;;;;;;-145.18;100.00;60484.78;5069537;28;20071;-68
2023/02/06 00:34:42;;;;;;;67.17;8.30;;;;;;;-145.18;100.00;60484.78;5067831;28;20028;-68
2023/02/06 00:37:07;;;;;;;86.27;9.33;;;;;;;-145.18;100.00;60484.78;5069673;28;20125;-67
2023/02/06 00:39:33;;;;;;;65.83;7.67;;;;;;;-145.18;100.00;60484.78;5071140;28;20028;-68
2023/02/06 00:41:58;;;;;;;84.83;9.73;;;;;;;-145.18;100.00;60484.78;5068361;28;20494;-67
2023/02/06 00:44:24;;;;;;;66.37;7.77;;;;;;;-145.18;100.00;60484.78;5071699;28;20103;-66
2023/02/06 00:46:49;;;;;;;69.80;8.37;;;;;;;-145.18;100.00;60484.78;5068926;28;20111;-67
2023/02/06 00:49:15;;;;;;;72.20;8.40;;;;;;;-145.18;100.00;60484.78;5070965;28;20050;-67
2023/02/06 00:51:41;;;;;;;70.53;7.90;;;;;;;-145.18;100.00;60484.78;5071675;28;20472;-68
2023/02/06 00:54:07;;;;;;;68.97;9.30;;;;;;;-145.18;100.00;60484.78;5050198;28;20048;-67
2023/02/06 00:56:33;;;;;;;63.80;7.87;;;;;;;-145.18;100.00;60484.78;5066319;28;20543;-67
2023/02/06 00:58:58;;;;;;;75.73;7.90;;;;;;;-145.18;100.00;60484.78;5071786;28;20052;-68
2023/02/06 01:01:25;;;;;;;80.13;10.23;;;;;;;-145.18;100.00;60484.78;5071588;28;20073;-68
2023/02/06 01:03:51;;;;;;;61.53;8.40;;;;;;;-145.18;100.00;60484.78;5069917;28;20028;-68
2023/02/06 01:06:17;;;;;;;77.07;8.67;;;;;;;-145.18;100.00;60484.78;5071423;28;20103;-68
2023/02/06 01:08:42;;;;;;;78.80;8.20;;;;;;;-145.18;100.00;60484.78;5071750;28;20409;-68
2023/02/06 01:11:14;;;;;;;77.87;9.17;;;;;;;-145.18;100.00;60484.78;5071519;28;20078;-68
2023/02/06 01:13:39;;;;;;;80.25;8.73;;;;;;;-145.18;100.00;60484.78;5071899;28;20067;-67
2023/02/06 01:16:10;;;;;;;80.33;8.73;;;;;;;-145.18;100.00;60484.78;5071413;28;20524;-67
2023/02/06 01:18:36;;;;;;;84.80;9.60;;;;;;;-145.18;100.00;60484.78;5070528;28;20032;-68
2023/02/06 01:21:07;;;;;;;78.60;8.93;;;;;;;-145.18;100.00;60484.78;5071652;28;20021;-68
2023/02/06 01:23:32;;;;;;;86.68;9.45;;;;;;;-145.18;100.00;60484.78;5071733;28;20051;-68
2023/02/06 01:25:57;;;;;;;88.73;9.73;;;;;;;-145.18;100.00;60484.78;5071308;28;20380;-68
2023/02/06 01:28:23;;;;;;;98.40;10.40;;;;;;;-145.18;100.00;60484.78;5071242;28;20170;-67
2023/02/06 01:30:48;;;;;;;78.63;9.63;;;;;;;-145.18;100.00;60484.78;5070556;28;20025;-67
2023/02/06 01:33:13;;;;;;;78.17;8.47;;;;;;;-145.18;100.00;60484.78;5069717;28;20538;-68
2023/02/06 01:35:39;;;;;;;80.10;10.10;;;;;;;-145.18;100.00;60484.78;5071583;28;20056;-69
2023/02/06 01:38:07;;;;;;;79.47;8.93;;;;;;;-145.18;100.00;60484.78;5070679;28;20024;-69
2023/02/06 01:40:32;;;;;;;79.53;9.53;;;;;;;-145.18;100.00;60484.78;5071308;28;20048;-67
2023/02/06 01:42:58;;;;;;;86.50;9.17;;;;;;;-145.18;100.00;60484.78;5066881;28;20118;-68
2023/02/06 01:45:44;;;;;;;88.70;9.60;;;;;;;-145.18;100.00;60484.78;5055041;28;20017;-68
2023/02/06 01:48:14;;;;;;;70.87;8.07;;;;;;;-145.18;100.00;60484.78;5069230;28;20108;-68
2023/02/06 01:50:45;;;;;;;96.30;9.80;;;;;;;-145.18;100.00;60484.78;5074842;28;20021;-67
2023/02/06 01:53:13;;;;;;;76.20;9.05;;;;;;;-145.18;100.00;60484.78;5074781;28;20063;-68
2023/02/06 01:55:42;;;;;;;66.70;9.40;;;;;;;-145.18;100.00;60484.78;5075312;28;20046;-68
2023/02/06 01:58:10;;;;;;;69.73;8.53;;;;;;;-145.18;100.00;60484.78;5073649;28;20038;-68
2023/02/06 02:00:36;;;;;;;84.93;8.43;;;;;;;-145.18;100.00;60484.78;5073283;28;20371;-68
2023/02/06 02:05:32;;;;;;;81.93;8.87;;;;;;;-145.18;100.00;60484.78;5019906;28;20053;-66
2023/02/06 02:08:13;;;;;;;76.27;8.63;;;;;;;-145.18;100.00;60484.78;5031754;28;20152;-66
2023/02/06 02:10:39;;;;;;;67.57;8.87;;;;;;;-145.18;100.00;60484.78;5034896;28;20465;-67
2023/02/06 02:13:05;;;;;;;78.13;9.23;;;;;;;-145.18;100.00;60484.78;5034398;28;20104;-66
2023/02/06 02:15:40;;;;;;;66.90;9.23;;;;;;;-145.18;100.00;60484.78;5033703;28;20033;-66
2023/02/06 02:18:43;;;;;;;60.60;8.73;;;;;;;-145.18;100.00;60484.78;5032113;28;20044;-66
2023/02/06 02:21:09;;;;;;;72.67;9.23;;;;;;;-145.18;100.00;60484.78;5028168;28;20112;-66
2023/02/06 02:24:07;;;;;;;83.10;10.13;;;;;;;-145.18;100.00;60484.78;5034601;28;20112;-66
2023/02/06 02:26:32;;;;;;;88.03;8.90;;;;;;;-145.18;100.00;60484.78;5020068;28;20474;-66
2023/02/06 02:29:32;;;;;;;77.87;9.13;;;;;;;-145.18;100.00;60484.78;5044995;28;20036;-66
2023/02/06 02:32:21;;;;;;;68.27;8.43;;;;;;;-145.18;100.00;60484.78;4972834;28;20042;-66
2023/02/06 02:35:18;;;;;;;64.77;9.63;;;;;;;-145.18;100.00;60484.78;4947860;28;20079;-66
2023/02/06 02:38:14;;;;;;;81.73;9.87;;;;;;;-145.18;100.00;60484.78;4951920;28;20054;-67
2023/02/06 02:40:50;;;;;;;75.73;9.70;;;;;;;-145.18;100.00;60484.78;4953835;29;20446;-67
2023/02/06 02:43:43;;;;;;;69.43;9.77;;;;;;;-145.18;100.00;60484.78;4953530;29;20122;-67
2023/02/06 02:46:11;;;;;;;86.23;10.27;;;;;;;-145.18;100.00;60484.78;4923154;29;20519;-67
2023/02/06 02:48:40;;;;;;;76.37;10.87;;;;;;;-145.18;100.00;60484.78;4937675;28;20034;-67
2023/02/06 02:51:07;;;;;;;65.13;9.90;;;;;;;-145.18;100.00;60484.78;4950764;28;20242;-67
2023/02/06 02:53:33;;;;;;;81.87;10.30;;;;;;;-145.18;100.00;60484.78;4952569;28;20426;-67
2023/02/06 02:55:59;;;;;;;75.50;10.90;;;;;;;-145.18;100.00;60484.78;4953432;28;20043;-67
2023/02/06 02:58:29;;;;;;;110.63;12.63;;;;;;;-145.18;100.00;60484.78;4950987;29;20035;-66
2023/02/06 03:01:02;;;;;;;89.90;10.63;;;;;;;-145.18;100.00;60484.78;4955391;28;20420;-67
2023/02/06 03:03:30;;;;;;;102.57;10.60;;;;;;;-145.18;100.00;60484.78;4952314;28;20039;-66
2023/02/06 03:06:39;;;;;;;91.20;10.23;;;;;;;-145.18;100.00;60484.78;4953705;29;20511;-67
2023/02/06 03:09:15;;;;;;;73.00;9.93;;;;;;;-145.18;100.00;60484.78;4990397;28;20034;-66
2023/02/06 03:11:49;;;;;;;55.83;9.40;;;;;;;-145.18;100.00;60484.78;5031112;28;20064;-66
2023/02/06 03:14:29;;;;;;;72.80;8.97;;;;;;;-145.18;100.00;60484.78;5021553;28;20491;-67
2023/02/06 03:17:01;;;;;;;77.10;10.63;;;;;;;-145.18;100.00;60484.78;5015955;28;20026;-67
2023/02/06 03:19:33;;;;;;;81.37;10.57;;;;;;;-145.18;100.00;60484.78;5033657;28;20025;-67
2023/02/06 03:22:01;;;;;;;77.68;10.48;;;;;;;-145.18;100.00;60484.78;5033639;28;20035;-66
2023/02/06 03:24:31;;;;;;;57.53;10.63;;;;;;;-145.18;100.00;60484.78;5033668;28;20065;-67
2023/02/06 03:27:00;;;;;;;71.70;10.13;;;;;;;-145.18;100.00;60484.78;5033584;28;20430;-67
2023/02/06 03:29:28;;;;;;;71.23;9.43;;;;;;;-145.18;100.00;60484.78;5033944;28;20351;-64
2023/02/06 03:32:01;;;;;;;81.40;10.20;;;;;;;-145.18;100.00;60484.78;5033425;28;20030;-64
2023/02/06 03:35:00;;;;;;;72.03;10.20;;;;;;;-145.18;100.00;60484.78;5032872;28;20028;-65
2023/02/06 03:37:28;;;;;;;76.53;10.83;;;;;;;-145.18;100.00;60484.78;5033558;28;20264;-64
2023/02/06 03:39:56;;;;;;;71.10;9.90;;;;;;;-145.18;100.00;60484.78;5033190;28;20275;-64
2023/02/06 03:42:22;;;;;;;68.77;10.90;;;;;;;-145.18;100.00;60484.78;5033406;28;20515;-64
2023/02/06 03:44:55;;;;;;;85.23;10.77;;;;;;;-145.18;100.00;60484.78;5052674;28;20388;-64
2023/02/06 03:47:22;;;;;;;86.37;13.90;;;;;;;-145.18;100.00;60484.78;5068179;28;20721;-64
2023/02/06 03:49:49;;;;;;;90.17;11.13;;;;;;;-145.18;100.00;60484.78;5014895;28;20065;-65
2023/02/06 03:52:24;;;;;;;80.70;11.47;;;;;;;-145.18;100.00;60484.78;5049614;28;20375;-65
2023/02/06 03:55:03;;;;;;;67.83;10.97;;;;;;;-145.18;100.00;60484.78;5053039;28;20722;-65
2023/02/06 03:57:30;;;;;;;72.10;11.27;;;;;;;-145.18;100.00;60484.78;5034002;28;20026;-64
2023/02/06 03:59:56;;;;;;;82.50;12.73;;;;;;;-145.18;100.00;60484.78;5013228;28;20460;-64
2023/02/06 04:02:24;;;;;;;89.87;13.20;;;;;;;-145.18;100.00;60484.78;5030772;28;20033;-64
2023/02/06 04:04:49;;;;;;;79.30;12.93;;;;;;;-145.18;100.00;60484.78;5031596;28;20085;-67
2023/02/06 04:07:24;;;;;;;84.53;12.50;;;;;;;-145.18;100.00;60484.78;5032221;28;20053;-67
2023/02/06 04:09:50;;;;;;;94.77;13.30;;;;;;;-145.18;100.00;60484.78;5032561;28;20148;-67
2023/02/06 04:12:15;;;;;;;78.27;13.27;;;;;;;-145.18;100.00;60484.78;5046315;28;20063;-67
2023/02/06 04:14:42;;;;;;;92.70;13.63;;;;;;;-145.18;100.00;60484.78;5052455;28;20108;-68
2023/02/06 04:17:08;;;;;;;107.33;14.33;;;;;;;-145.18;100.00;60484.78;5037504;28;20022;-67
2023/02/06 04:19:34;;;;;;;94.23;14.67;;;;;;;-145.18;100.00;60484.78;5032665;28;20086;-67
2023/02/06 04:21:59;;;;;;;81.93;14.40;;;;;;;-145.18;100.00;60484.78;5028403;28;20067;-66
2023/02/06 04:24:25;;;;;;;91.13;15.10;;;;;;;-145.18;100.00;60484.78;5046015;28;20715;-67
2023/02/06 04:26:50;;;;;;;97.97;15.13;;;;;;;-145.18;100.00;60484.78;5051698;28;20021;-67
2023/02/06 04:29:16;;;;;;;92.47;14.30;;;;;;;-145.18;100.00;60484.78;5032455;28;20036;-67
2023/02/06 04:31:41;;;;;;;94.87;14.53;;;;;;;-145.18;100.00;60484.78;5045695;28;20468;-67
2023/02/06 04:34:07;;;;;;;91.63;14.53;;;;;;;-145.18;100.00;60484.78;5040710;28;20033;-67
2023/02/06 04:36:33;;;;;;;104.83;15.07;;;;;;;-145.18;100.00;60484.78;5032332;28;20026;-67
2023/02/06 04:38:58;;;;;;;99.50;15.33;;;;;;;-145.18;100.00;60484.78;5031826;28;20021;-67
2023/02/06 04:41:24;;;;;;;82.50;14.70;;;;;;;-145.18;100.00;60484.78;5030630;28;20332;-66
2023/02/06 04:43:49;;;;;;;72.60;12.77;;;;;;;-145.18;100.00;60484.78;5034360;28;20450;-67
2023/02/06 04:46:14;;;;;;;100.00;15.23;;;;;;;-145.18;100.00;60484.78;5031740;28;20049;-67
2023/02/06 04:48:40;;;;;;;108.57;16.03;;;;;;;-145.18;100.00;60484.78;5032234;28;20022;-67
2023/02/06 04:51:05;;;;;;;141.10;16.97;;;;;;;-145.18;100.00;60484.78;5031438;28;20392;-67
2023/02/06 04:53:31;;;;;;;129.63;15.77;;;;;;;-145.18;100.00;60484.78;5041494;28;20025;-67
2023/02/06 04:56:08;;;;;;;132.50;16.93;;;;;;;-145.18;100.00;60484.78;5051938;28;20185;-67
2023/02/06 04:58:34;;;;;;;121.37;16.43;;;;;;;-145.18;100.00;60484.78;5050070;28;20403;-67
2023/02/06 05:00:59;;;;;;;123.90;17.60;;;;;;;-145.18;100.00;60484.78;5043935;28;20028;-67
2023/02/06 05:03:25;;;;;;;125.47;18.67;;;;;;;-145.18;100.00;60484.78;5030354;28;20030;-67
2023/02/06 05:05:51;;;;;;;106.40;17.03;;;;;;;-145.18;100.00;60484.78;4999983;28;20168;-67
2023/02/06 05:08:17;;;;;;;153.57;19.33;;;;;;;-145.18;100.00;60484.78;5031590;28;20026;-67
2023/02/06 05:10:42;;;;;;;124.83;17.57;;;;;;;-145.18;100.00;60484.78;5031898;28;20033;-67
2023/02/06 05:13:08;;;;;;;137.43;17.27;;;;;;;-145.18;100.00;60484.78;5032903;28;20038;-67
2023/02/06 05:15:37;;;;;;;111.67;16.03;;;;;;;-145.18;100.00;60484.78;5033948;28;20021;-67
2023/02/06 05:18:03;;;;;;;148.53;17.77;;;;;;;-145.18;100.00;60484.78;5032954;28;20037;-67
2023/02/06 05:20:28;;;;;;;142.93;19.03;;;;;;;-145.18;100.00;60484.78;5035668;28;20030;-68
2023/02/06 05:22:54;;;;;;;163.70;19.13;;;;;;;-145.18;100.00;60484.78;5035490;28;20203;-67
2023/02/06 05:25:19;;;;;;;210.47;21.77;;;;;;;-145.18;100.00;60484.78;5036138;28;20104;-67
2023/02/06 05:27:44;;;;;;;305.70;22.90;;;;;;;-145.18;100.00;60484.78;5055441;28;20052;-67
2023/02/06 05:30:10;;;;;;;200.17;22.00;;;;;;;-145.18;100.00;60484.78;5052638;28;20108;-67
2023/02/06 05:32:36;;;;;;;171.90;21.37;;;;;;;-145.18;100.00;60484.78;5052474;28;20029;-66
2023/02/06 05:35:01;;;;;;;171.87;21.90;;;;;;;-145.18;100.00;60484.78;5035887;28;20033;-67
2023/02/06 05:37:27;;;;;;;152.80;20.30;;;;;;;-145.18;100.00;60484.78;5036438;28;20025;-67
2023/02/06 05:39:52;;;;;;;163.13;21.87;;;;;;;-145.18;100.00;60484.78;5034504;28;20631;-68
2023/02/06 05:42:17;;;;;;;127.17;22.17;;;;;;;-145.18;100.00;60484.78;5036893;28;20039;-67
2023/02/06 05:44:43;;;;;;;114.00;22.23;;;;;;;-145.18;100.00;60484.78;5035170;28;20025;-67
2023/02/06 05:47:08;;;;;;;127.27;23.90;;;;;;;-145.18;100.00;60484.78;5034829;28;20031;-67
2023/02/06 05:49:33;;;;;;;132.47;23.07;;;;;;;-145.18;100.00;60484.78;5033948;28;20068;-67
2023/02/06 05:51:59;;;;;;;142.67;22.03;;;;;;;-145.18;100.00;60484.78;5035189;28;20033;-67
2023/02/06 05:54:24;;;;;;;132.03;23.37;;;;;;;-145.18;100.00;60484.78;5034701;28;20083;-67
2023/02/06 05:56:50;;;;;;;149.93;24.17;;;;;;;-145.18;100.00;60484.78;5043790;28;20128;-67
2023/02/06 05:59:15;;;;;;;166.43;23.20;;;;;;;-145.18;100.00;60484.78;5045964;28;20064;-67
2023/02/06 06:01:40;;;;;;;149.73;22.13;;;;;;;-145.18;100.00;60484.78;5034386;28;20029;-67
2023/02/06 06:04:06;;;;;;;187.03;23.40;;;;;;;-145.18;100.00;60484.78;5040115;28;20044;-67
2023/02/06 06:06:31;;;;;;;182.10;23.17;;;;;;;-145.18;100.00;60484.78;5053431;28;20029;-67
2023/02/06 06:09:00;;;;;;;159.03;24.23;;;;;;;-145.18;100.00;60484.78;5053682;28;20033;-67
2023/02/06 06:11:26;;;;;;;149.57;25.73;;;;;;;-145.18;100.00;60484.78;5051395;28;20056;-67
2023/02/06 06:13:52;;;;;;;160.17;27.07;;;;;;;-145.18;100.00;60484.78;5035369;28;20080;-68
2023/02/06 06:16:17;;;;;;;165.90;27.23;;;;;;;-145.18;100.00;60484.78;5030056;28;20420;-67
2023/02/06 06:18:42;;;;;;;192.93;30.17;;;;;;;-145.18;100.00;60484.78;5034895;28;20024;-67
2023/02/06 06:21:08;;;;;;;153.57;27.73;;;;;;;-145.18;100.00;60484.78;5034312;28;20472;-68
2023/02/06 06:23:33;;;;;;;176.37;28.93;;;;;;;-145.18;100.00;60484.78;5034784;28;20045;-67
2023/02/06 06:25:59;;;;;;;158.67;30.77;;;;;;;-145.18;100.00;60484.78;5034268;28;20112;-67
2023/02/06 06:28:24;;;;;;;179.77;29.93;;;;;;;-145.18;100.00;60484.78;5034643;28;20435;-66
2023/02/06 06:30:49;;;;;;;197.00;31.37;;;;;;;-145.18;100.00;60484.78;5034361;28;20025;-67
2023/02/06 06:33:16;;;;;;;232.97;29.13;;;;;;;-145.18;100.00;60484.78;5034008;28;20034;-67
2023/02/06 06:35:42;;;;;;;196.67;29.93;;;;;;;-145.18;100.00;60484.78;5033562;28;20033;-67
2023/02/06 06:38:07;;;;;;;222.47;30.47;;;;;;;-145.18;100.00;60484.78;5034335;28;20101;-67
2023/02/06 06:40:33;;;;;;;208.63;30.47;;;;;;;-145.18;100.00;60484.78;5033068;28;20025;-68
2023/02/06 06:42:58;;;;;;;185.47;29.77;;;;;;;-145.18;100.00;60484.78;5033746;28;20128;-67
2023/02/06 06:45:23;;;;;;;174.07;30.27;;;;;;;-145.18;100.00;60484.78;5033536;28;20091;-67
2023/02/06 06:47:49;;;;;;;154.27;30.00;;;;;;;-145.18;100.00;60484.78;5016416;28;20029;-67
2023/02/06 06:50:14;;;;;;;143.50;31.53;;;;;;;-145.18;100.00;60484.78;5033484;28;20032;-69
2023/02/06 06:52:39;;;;;;;158.30;33.73;;;;;;;-145.18;100.00;60484.78;5034209;28;20026;-67
2023/02/06 06:55:05;;;;;;;156.40;33.67;;;;;;;-145.18;100.00;60484.78;5033731;28;20171;-67
2023/02/06 06:57:31;;;;;;;157.63;34.00;;;;;;;-145.18;100.00;60484.78;5032715;28;20395;-67
2023/02/06 06:59:56;;;;;;;140.80;32.93;;;;;;;-145.18;100.00;60484.78;5030773;28;20576;-68
2023/02/06 07:02:22;;;;;;;142.70;33.47;;;;;;;-145.18;100.00;60484.78;5034540;28;20026;-67
2023/02/06 07:04:47;;;;;;;146.90;33.27;;;;;;;-145.18;100.00;60484.78;5032337;28;20112;-68
2023/02/06 07:07:13;;;;;;;147.10;32.43;;;;;;;-145.18;100.00;60484.78;5032186;28;20112;-67
2023/02/06 07:09:38;;;;;;;149.17;32.93;;;;;;;-145.18;100.00;60484.78;5033475;28;20029;-68
2023/02/06 07:12:04;;;;;;;167.00;33.80;;;;;;;-145.18;100.00;60484.78;5032350;28;20106;-68
2023/02/06 07:14:30;;;;;;;152.57;32.80;;;;;;;-145.18;100.00;60484.78;5033237;28;20028;-68
2023/02/06 07:16:55;;;;;;;153.90;31.43;;;;;;;-145.18;100.00;60484.78;5032779;28;20093;-68
2023/02/06 07:19:21;;;;;;;144.87;31.60;;;;;;;-145.18;100.00;60484.78;5032344;28;20025;-68
2023/02/06 07:21:46;;;;;;;149.27;30.87;;;;;;;-145.18;100.00;60484.78;5033646;28;20026;-67
2023/02/06 07:24:11;;;;;;;136.17;31.60;;;;;;;-145.18;100.00;60484.78;5031523;28;20052;-68
2023/02/06 07:26:37;;;;;;;154.97;33.67;;;;;;;-145.18;100.00;60484.78;5033431;28;20025;-68
2023/02/06 07:29:03;;;;;;;153.30;32.20;;;;;;;-145.18;100.00;60484.78;5030870;28;20041;-68
2023/02/06 07:31:28;;;;;;;139.10;30.20;;;;;;;-145.18;100.00;60484.78;5031755;28;20048;-69
2023/02/06 07:33:53;;;;;;;154.73;31.23;;;;;;;-145.18;100.00;60484.78;5034001;28;20029;-68
2023/02/06 07:36:19;;;;;;;157.47;29.97;;;;;;;-145.18;100.00;60484.78;5032840;28;20033;-68
2023/02/06 07:38:44;;;;;;;131.23;28.97;;;;;;;-145.18;100.00;60484.78;5032772;28;20022;-68
2023/02/06 07:41:10;;;;;;;148.03;31.87;;;;;;;-145.18;100.00;60484.78;5033252;28;20017;-68
2023/02/06 07:43:37;;;;;;;146.70;31.03;;;;;;;-145.18;100.00;60484.78;5031171;28;20025;-68
2023/02/06 07:46:03;;;;;;;182.83;33.30;;;;;;;-145.18;100.00;60484.78;5028859;28;20051;-68
2023/02/06 07:48:30;;;;;;;150.97;31.03;;;;;;;-145.18;100.00;60484.78;5032141;28;20045;-68
2023/02/06 07:51:02;;;;;;;168.43;30.53;;;;;;;-145.18;100.00;60484.78;5032549;28;20032;-68
2023/02/06 07:53:27;;;;;;;156.33;32.47;;;;;;;-145.18;100.00;60484.78;5032829;28;20464;-68
2023/02/06 07:55:52;;;;;;;180.40;32.87;;;;;;;-145.18;100.00;60484.78;5031870;28;20120;-68
2023/02/06 07:58:18;;;;;;;189.43;30.67;;;;;;;-145.18;100.00;60484.78;5032600;28;20472;-68
2023/02/06 08:00:43;;;;;;;176.20;30.53;;;;;;;-145.18;100.00;60484.78;5032823;28;20100;-68
2023/02/06 08:03:09;;;;;;;189.80;33.77;;;;;;;-145.18;100.00;60484.78;5032613;28;20030;-68
2023/02/06 08:05:38;;;;;;;194.90;33.70;;;;;;;-145.18;100.00;60484.78;5030224;28;20037;-68
2023/02/06 08:08:04;;;;;;;179.87;31.27;;;;;;;-145.18;100.00;60484.78;5032882;28;20079;-68
2023/02/06 08:10:29;;;;;;;206.10;34.17;;;;;;;-145.18;100.00;60484.78;5031094;28;20031;-68
2023/02/06 08:12:55;;;;;;;197.63;33.43;;;;;;;-145.18;100.00;60484.78;5030585;28;20469;-68
2023/02/06 08:15:20;;;;;;;158.90;34.37;;;;;;;-145.18;100.00;60484.78;5030835;28;20091;-68
2023/02/06 08:17:46;;;;;;;161.97;36.83;;;;;;;-145.18;100.00;60484.78;5032661;28;20494;-68
2023/02/06 08:20:12;;;;;;;168.67;36.83;;;;;;;-145.18;100.00;60484.78;5031529;28;20033;-68
2023/02/06 08:22:38;;;;;;;156.03;34.40;;;;;;;-145.18;100.00;60484.78;5031816;28;20100;-68
2023/02/06 08:25:04;;;;;;;168.10;35.43;;;;;;;-145.18;100.00;60484.78;5033493;28;20030;-68
2023/02/06 08:27:29;;;;;;;151.23;34.53;;;;;;;-145.18;100.00;60484.78;5032062;28;20022;-68
2023/02/06 08:29:58;;;;;;;156.73;32.97;;;;;;;-145.18;100.00;60484.78;5032177;28;20052;-68
2023/02/06 08:32:24;;;;;;;164.17;32.00;;;;;;;-145.18;100.00;60484.78;5031610;28;20018;-68
2023/02/06 08:34:49;;;;;;;138.40;32.07;;;;;;;-145.18;100.00;60484.78;5032136;28;20056;-68
2023/02/06 08:37:14;;;;;;;151.37;31.83;;;;;;;-145.18;100.00;60484.78;5032155;28;20025;-68
2023/02/06 08:39:40;;;;;;;177.33;32.17;;;;;;;-145.18;100.00;60484.78;5032314;28;20451;-68
2023/02/06 08:42:05;;;;;;;142.57;31.53;;;;;;;-145.18;100.00;60484.78;5032139;28;20026;-68
2023/02/06 08:44:30;;;;;;;161.73;32.30;;;;;;;-145.18;100.00;60484.78;5031928;28;20057;-68
2023/02/06 08:46:56;;;;;;;152.53;33.57;;;;;;;-145.18;100.00;60484.78;5031429;28;20036;-68
2023/02/06 08:49:25;;;;;;;150.93;32.57;;;;;;;-145.18;100.00;60484.78;5030702;28;20108;-69
2023/02/06 08:51:51;;;;;;;174.73;33.70;;;;;;;-145.18;100.00;60484.78;5030514;28;20067;-68
2023/02/06 08:54:20;;;;;;;146.27;33.67;;;;;;;-145.18;100.00;60484.78;5030376;28;20030;-68
2023/02/06 08:56:46;;;;;;;168.13;33.13;;;;;;;-145.18;100.00;60484.78;5032071;28;20313;-68
2023/02/06 08:59:13;;;;;;;150.27;31.50;;;;;;;-145.18;100.00;60484.78;5031785;28;20116;-69
2023/02/06 09:01:39;;;;;;;126.23;26.90;;;;;;;-145.18;100.00;60484.78;5031676;28;20080;-66
2023/02/06 09:04:07;;;;;;;163.13;28.20;;;;;;;-145.18;100.00;60484.78;5030705;28;20030;-66
2023/02/06 09:06:34;;;;;;;130.87;27.30;;;;;;;-145.18;100.00;60484.78;5030882;28;20381;-66
2023/02/06 09:09:00;;;;;;;105.20;23.93;;;;;;;-145.18;100.00;60484.78;5030559;28;20726;-66
2023/02/06 09:11:26;;;;;;;118.80;24.77;;;;;;;-145.18;100.00;60484.78;5031810;28;20057;-66
2023/02/06 09:13:55;;;;;;;115.80;24.07;;;;;;;-145.18;100.00;60484.78;5031969;28;20128;-66
2023/02/06 09:16:20;;;;;;;132.27;26.40;;;;;;;-145.18;100.00;60484.78;5031365;28;20325;-66
2023/02/06 09:18:48;;;;;;;121.97;24.80;;;;;;;-145.18;100.00;60484.78;5031721;28;20087;-66
2023/02/06 09:21:16;;;;;;;110.93;25.97;;;;;;;-145.18;100.00;60484.78;5042483;28;20472;-66
2023/02/06 09:23:47;;;;;;;115.77;28.57;;;;;;;-145.18;100.00;60484.78;5031075;28;20052;-66
2023/02/06 09:26:18;;;;;;;133.77;28.67;;;;;;;-145.18;100.00;60484.78;5031530;28;20025;-66
2023/02/06 09:28:44;;;;;;;153.43;28.75;;;;;;;-145.18;100.00;60484.78;5031319;28;20114;-66
2023/02/06 09:31:09;;;;;;;161.53;43.63;;;;;;;-145.18;100.00;60484.78;5031390;28;20557;-66
2023/02/06 09:33:36;;;;;;;159.37;39.03;;;;;;;-145.18;100.00;60484.78;5031425;28;20048;-66
2023/02/06 09:36:09;;;;;;;184.23;43.20;;;;;;;-145.18;100.00;60484.78;5031328;28;20120;-66
2023/02/06 09:38:35;;;;;;;125.80;31.27;;;;;;;-145.18;100.00;60484.78;5031621;28;20384;-66
2023/02/06 09:41:04;;;;;;;150.37;31.57;;;;;;;-145.18;100.00;60484.78;5031504;28;20033;-66
2023/02/06 09:43:32;;;;;;;136.57;29.73;;;;;;;-145.18;100.00;60484.78;5031308;28;20025;-66
2023/02/06 09:46:01;;;;;;;127.57;30.83;;;;;;;-145.18;100.00;60484.78;5031022;28;20032;-66
2023/02/06 09:48:31;;;;;;;133.63;27.97;;;;;;;-145.18;100.00;60484.78;5046241;28;20026;-66
2023/02/06 09:51:44;;;;;;;139.03;30.43;;;;;;;-145.18;100.00;60484.78;5032090;28;20484;-66
2023/02/06 09:54:09;;;;;;;134.00;27.47;;;;;;;-145.18;100.00;60484.78;4949710;28;20390;-66
2023/02/06 09:56:37;;;;;;;159.23;30.47;;;;;;;-145.18;100.00;60484.78;4950851;29;20039;-66
2023/02/06 09:59:14;;;;;;;128.23;27.23;;;;;;;-145.18;100.00;60484.78;4950760;29;20027;-66
2023/02/06 10:01:59;;;;;;;126.90;27.30;;;;;;;-145.18;100.00;60484.78;4934988;29;20577;-66
2023/02/06 10:04:41;;;;;;;155.13;28.63;;;;;;;-145.18;100.00;60484.78;4952312;28;20031;-66
2023/02/06 10:07:27;;;;;;;125.80;29.27;;;;;;;-145.18;100.00;60484.78;4953975;29;20023;-66
2023/02/06 10:10:03;;;;;;;163.00;29.80;;;;;;;-145.18;100.00;60484.78;4954225;29;20031;-66
2023/02/06 10:12:40;;;;;;;180.13;30.37;;;;;;;-145.18;100.00;60484.78;4952341;28;20035;-66
2023/02/06 10:15:21;;;;;;;212.27;33.10;;;;;;;-145.18;100.00;60484.78;4954139;29;20554;-66
2023/02/06 10:17:56;;;;;;;216.98;33.92;;;;;;;-145.18;100.00;60484.78;4952536;28;20031;-67
2023/02/06 10:20:35;;;;;;;216.87;32.60;;;;;;;-145.18;100.00;60484.78;4951723;28;20403;-66
2023/02/06 10:23:12;;;;;;;155.50;29.23;;;;;;;-145.18;100.00;60484.78;4953760;29;20043;-66
2023/02/06 10:25:45;;;;;;;247.93;31.80;;;;;;;-145.18;100.00;60484.78;4954058;29;20116;-66
2023/02/06 10:28:20;;;;;;;244.73;30.97;;;;;;;-145.18;100.00;60484.78;5001793;28;20511;-67
2023/02/06 10:31:16;;;;;;;189.90;29.17;;;;;;;-145.18;100.00;60484.78;5031161;28;20065;-66
2023/02/06 10:33:59;;;;;;;203.40;30.50;;;;;;;-145.18;100.00;60484.78;5014822;28;20036;-67
2023/02/06 10:36:25;;;;;;;201.93;32.67;;;;;;;-145.18;100.00;60484.78;5030900;28;20484;-66
2023/02/06 10:39:04;;;;;;;212.07;29.73;;;;;;;-145.18;100.00;60484.78;5032695;28;20033;-66
2023/02/06 10:41:45;;;;;;;157.47;27.10;;;;;;;-145.18;100.00;60484.78;5033999;28;20435;-67
2023/02/06 10:44:30;;;;;;;279.27;29.98;;;;;;;-145.18;100.00;60484.78;5034417;28;20204;-67
2023/02/06 10:46:56;;;;;;;289.40;29.57;;;;;;;-145.18;100.00;60484.78;5033145;28;20030;-66
2023/02/06 10:49:29;;;;;;;200.07;26.67;;;;;;;-145.18;100.00;60484.78;5034548;28;20504;-67
2023/02/06 10:52:00;;;;;;;210.53;28.43;;;;;;;-145.18;100.00;60484.78;5033837;28;20112;-67
2023/02/06 10:54:29;;;;;;;276.30;30.52;;;;;;;-145.18;100.00;60484.78;5033912;28;20036;-65
2023/02/06 10:56:57;;;;;;;236.07;27.73;;;;;;;-145.18;100.00;60484.78;5032860;28;20034;-67
2023/02/06 10:59:50;;;;;;;225.77;26.90;;;;;;;-145.18;100.00;60484.78;5033261;28;20037;-67
2023/02/06 11:02:34;;;;;;;277.23;26.77;;;;;;;-145.18;100.00;60484.78;5034017;28;20524;-67